Time;durP1;ratioP1;P1;durP2;ratioP2;P2;SDS_P1;SDS_P2;PMS_P1;PMS_P2;Temp;Humidity;BMP_temperature;BMP_pressure;BME280_temperature;BME280_humidity;BME280_pressure;Samples;Min_cycle;Max_cycle;Signal;HPM_P1;HPM_P2
2022/04/20 00:01:58;;;;;;;;;;;;;;;;;;5091027;28;697;-69
2022/04/20 00:04:24;;;;;;;;;;;;;;;;;;5091169;28;1138;-69
2022/04/20 00:06:50;;;;;;;;;;;;;;;;;;5091063;28;1404;-69
2022/04/20 00:09:16;;;;;;;;;;;;;;;;;;5090981;28;1067;-69
2022/04/20 00:11:43;;;;;;;;;;;;;;;;;;5090390;28;1918;-69
2022/04/20 00:14:09;;;;;;;;;;;;;;;;;;5090809;28;1116;-69
2022/04/20 00:16:36;;;;;;;;;;;;;;;;;;5090888;28;957;-69
2022/04/20 00:19:02;;;;;;;;;;;;;;;;;;5091103;28;1369;-70
2022/04/20 00:21:29;;;;;;;;;;;;;;;;;;5090873;28;1131;-69
2022/04/20 00:23:55;;;;;;;;;;;;;;;;;;5090976;28;882;-69
2022/04/20 00:26:21;;;;;;;;;;;;;;;;;;5090824;28;1123;-69
2022/04/20 00:28:48;;;;;;;;;;;;;;;;;;5090819;28;1422;-66
2022/04/20 00:31:14;;;;;;;;;;;;;;;;;;5072658;28;1909;-69
2022/04/20 00:33:41;;;;;;;;;;;;;;;;;;5092941;28;1095;-69
2022/04/20 00:36:09;;;;;;;;;;;;;;;;;;5094673;28;1053;-69
2022/04/20 00:38:35;;;;;;;;;;;;;;;;;;5076648;28;1318;-69
2022/04/20 00:41:01;;;;;;;;;;;;;;;;;;5094704;28;1122;-70
2022/04/20 00:43:28;;;;;;;;;;;;;;;;;;5095066;28;777;-69
2022/04/20 00:45:54;;;;;;;;;;;;;;;;;;5095004;28;687;-70
2022/04/20 00:48:20;;;;;;;;;;;;;;;;;;5095236;28;1329;-70
2022/04/20 00:50:48;;;;;;;;;;;;;;;;;;5077086;28;1926;-69
2022/04/20 00:53:14;;;;;;;;;;;;;;;;;;5095335;28;929;-69
2022/04/20 00:55:40;;;;;;;;;;;;;;;;;;5077461;28;1215;-68
2022/04/20 00:58:09;;;;;;;;;;;;;;;;;;5076141;28;1414;-69
2022/04/20 01:00:36;;;;;;;;;;;;;;;;;;5076127;28;1168;-69
2022/04/20 01:03:04;;;;;;;;;;;;;;;;;;5076129;28;1545;-69
2022/04/20 01:05:43;;;;;;;;;;;;;;;;;;5076047;28;1322;-69
2022/04/20 01:08:20;;;;;;;;;;;;;;;;;;5075829;28;1305;-69
2022/04/20 01:11:17;;;;;;;;;;;;;;;;;;5075906;28;1918;-69
2022/04/20 01:13:52;;;;;;;;;;;;;;;;;;5076045;28;1195;-69
2022/04/20 01:16:24;;;;;;;;;;;;;;;;;;5094000;28;856;-70
2022/04/20 01:19:05;;;;;;;;;;;;;;;;;;5076056;28;1187;-68
2022/04/20 01:21:55;;;;;;;;;;;;;;;;;;5075708;28;1528;-69
2022/04/20 01:24:40;;;;;;;;;;;;;;;;;;5094762;28;628;-69
2022/04/20 01:27:28;;;;;;;;;;;;;;;;;;5075454;28;1310;-68
2022/04/20 01:30:16;;;;;;;;;;;;;;;;;;5075578;28;1390;-70
2022/04/20 01:33:02;;;;;;;;;;;;;;;;;;5082771;28;1172;-69
2022/04/20 01:35:35;;;;;;;;;;;;;;;;;;5075555;28;838;-69
2022/04/20 01:38:02;;;;;;;;;;;;;;;;;;5075151;28;1367;-70
2022/04/20 01:40:29;;;;;;;;;;;;;;;;;;5075686;28;1406;-68
2022/04/20 01:42:56;;;;;;;;;;;;;;;;;;5075269;28;1490;-69
2022/04/20 01:45:22;;;;;;;;;;;;;;;;;;5074628;28;1322;-71
2022/04/20 01:48:07;;;;;;;;;;;;;;;;;;5074828;28;1552;-69
2022/04/20 01:53:52;;;;;;;;;;;;;;;;;;5075523;28;1439;-69
2022/04/20 01:56:35;;;;;;;;;;;;;;;;;;5075236;28;1362;-69
2022/04/20 01:59:19;;;;;;;;;;;;;;;;;;5093383;28;602;-69
2022/04/20 02:05:33;;;;;;;;;;;;;;;;;;5034178;28;1619;-69
2022/04/20 02:08:38;;;;;;;;;;;;;;;;;;4971752;28;1552;-69
2022/04/20 02:11:22;;;;;;;;;;;;;;;;;;4993964;28;1978;-69
2022/04/20 02:13:54;;;;;;;;;;;;;;;;;;5051780;28;1403;-69
2022/04/20 02:16:20;;;;;;;;;;;;;;;;;;5072166;28;1807;-69
2022/04/20 02:19:16;;;;;;;;;;;;;;;;;;5094253;28;1061;-68
2022/04/20 02:21:50;;;;;;;;;;;;;;;;;;5073803;28;2120;-69
2022/04/20 02:24:17;;;;;;;;;;;;;;;;;;5075547;28;1811;-69
2022/04/20 02:26:44;;;;;;;;;;;;;;;;;;5073336;28;1794;-68
2022/04/20 02:29:11;;;;;;;;;;;;;;;;;;5074390;28;1093;-69
2022/04/20 02:31:37;;;;;;;;;;;;;;;;;;5074701;28;1922;-70
2022/04/20 02:34:03;;;;;;;;;;;;;;;;;;5073487;28;2151;-69
2022/04/20 02:36:31;;;;;;;;;;;;;;;;;;5074209;28;1293;-69
2022/04/20 02:38:57;;;;;;;;;;;;;;;;;;5092959;28;1343;-70
2022/04/20 02:41:23;;;;;;;;;;;;;;;;;;5074373;28;909;-69
2022/04/20 02:43:51;;;;;;;;;;;;;;;;;;5091823;28;1511;-69
2022/04/20 02:46:17;;;;;;;;;;;;;;;;;;5074208;28;1003;-69
2022/04/20 02:48:43;;;;;;;;;;;;;;;;;;5092344;28;1408;-69
2022/04/20 02:51:10;;;;;;;;;;;;;;;;;;5074022;28;1921;-69
2022/04/20 02:53:36;;;;;;;;;;;;;;;;;;5072839;28;2021;-69
2022/04/20 02:56:02;;;;;;;;;;;;;;;;;;5073800;28;1117;-70
2022/04/20 02:58:29;;;;;;;;;;;;;;;;;;5073681;28;1389;-69
2022/04/20 03:01:00;;;;;;;;;;;;;;;;;;5073884;28;1443;-69
2022/04/20 03:03:33;;;;;;;;;;;;;;;;;;5073195;28;2059;-69
2022/04/20 03:06:11;;;;;;;;;;;;;;;;;;5073163;28;1235;-68
2022/04/20 03:08:38;;;;;;;;;;;;;;;;;;5073976;28;1332;-69
2022/04/20 03:11:05;;;;;;;;;;;;;;;;;;5073677;28;1910;-69
2022/04/20 03:13:32;;;;;;;;;;;;;;;;;;5073802;28;1706;-68
2022/04/20 03:16:00;;;;;;;;;;;;;;;;;;5091944;28;783;-69
2022/04/20 03:18:31;;;;;;;;;;;;;;;;;;5073586;28;1278;-69
2022/04/20 03:20:59;;;;;;;;;;;;;;;;;;5073637;28;1235;-69
2022/04/20 03:23:26;;;;;;;;;;;;;;;;;;5073653;28;1605;-70
2022/04/20 03:25:56;;;;;;;;;;;;;;;;;;5073523;28;1648;-69
2022/04/20 03:28:47;;;;;;;;;;;;;;;;;;5073615;28;1626;-70
2022/04/20 03:31:16;;;;;;;;;;;;;;;;;;5073375;28;1964;-68
2022/04/20 03:33:42;;;;;;;;;;;;;;;;;;5073579;28;1155;-68
2022/04/20 03:36:08;;;;;;;;;;;;;;;;;;5090977;28;1597;-69
2022/04/20 03:38:34;;;;;;;;;;;;;;;;;;5073394;28;1309;-69
2022/04/20 03:41:02;;;;;;;;;;;;;;;;;;5073173;28;1226;-69
2022/04/20 03:43:28;;;;;;;;;;;;;;;;;;5073393;28;1091;-69
2022/04/20 03:45:58;;;;;;;;;;;;;;;;;;5071906;28;1946;-68
2022/04/20 03:48:26;;;;;;;;;;;;;;;;;;5091013;28;2067;-70
2022/04/20 03:50:54;;;;;;;;;;;;;;;;;;5087180;28;1525;-70
2022/04/20 03:53:21;;;;;;;;;;;;;;;;;;5091497;28;1914;-70
2022/04/20 03:55:50;;;;;;;;;;;;;;;;;;5074246;28;1478;-70
2022/04/20 03:58:16;;;;;;;;;;;;;;;;;;5079285;22;3530;-71
2022/04/20 04:00:44;;;;;;;;;;;;;;;;;;5066003;28;1844;-71
2022/04/20 04:03:11;;;;;;;;;;;;;;;;;;5049105;28;2009;-70
2022/04/20 04:05:40;;;;;;;;;;;;;;;;;;5049321;28;2265;-71
2022/04/20 04:08:14;;;;;;;;;;;;;;;;;;5049776;28;2552;-70
2022/04/20 04:10:40;;;;;;;;;;;;;;;;;;5050403;28;1692;-71
2022/04/20 04:13:07;;;;;;;;;;;;;;;;;;5051676;28;1964;-72
2022/04/20 04:15:34;;;;;;;;;;;;;;;;;;5050042;28;2205;-71
2022/04/20 04:18:02;;;;;;;;;;;;;;;;;;5066758;28;1803;-72
2022/04/20 04:20:35;;;;;;;;;;;;;;;;;;5050393;28;1856;-71
2022/04/20 04:23:03;;;;;;;;;;;;;;;;;;5050750;28;1752;-71
2022/04/20 04:25:38;;;;;;;;;;;;;;;;;;5067884;28;1808;-71
2022/04/20 04:28:06;;;;;;;;;;;;;;;;;;5050180;28;1706;-71
2022/04/20 04:30:33;;;;;;;;;;;;;;;;;;5052410;28;1494;-71
2022/04/20 04:33:03;;;;;;;;;;;;;;;;;;5052989;28;1922;-71
2022/04/20 04:35:31;;;;;;;;;;;;;;;;;;5051275;28;1628;-71
2022/04/20 04:37:57;;;;;;;;;;;;;;;;;;5052399;28;1348;-72
2022/04/20 04:40:28;;;;;;;;;;;;;;;;;;5051338;28;1592;-71
2022/04/20 04:42:56;;;;;;;;;;;;;;;;;;5051886;28;1360;-70
2022/04/20 04:51:02;;;;;;;;;;;;;;;;;;5032500;28;1209;-71
2022/04/20 04:53:28;;;;;;;;;;;;;;;;;;5032699;28;1927;-71
2022/04/20 04:55:56;;;;;;;;;;;;;;;;;;5033782;28;2205;-71
2022/04/20 04:58:22;;;;;;;;;;;;;;;;;;5051937;28;1689;-71
2022/04/20 05:00:49;;;;;;;;;;;;;;;;;;5052305;28;1582;-71
2022/04/20 05:03:22;;;;;;;;;;;;;;;;;;5052083;28;1432;-71
2022/04/20 05:05:49;;;;;;;;;;;;;;;;;;5070258;28;1112;-71
2022/04/20 05:08:24;;;;;;;;;;;;;;;;;;5049294;28;1512;-71
2022/04/20 05:10:52;;;;;;;;;;;;;;;;;;5051719;28;1273;-70
2022/04/20 05:13:19;;;;;;;;;;;;;;;;;;5052066;28;1906;-71
2022/04/20 05:15:45;;;;;;;;;;;;;;;;;;5052336;28;1559;-70
2022/04/20 05:18:12;;;;;;;;;;;;;;;;;;5051748;28;1399;-71
2022/04/20 05:20:39;;;;;;;;;;;;;;;;;;5087448;28;1283;-70
2022/04/20 05:23:06;;;;;;;;;;;;;;;;;;5089396;28;1190;-71
2022/04/20 05:25:33;;;;;;;;;;;;;;;;;;5089398;28;1167;-71
2022/04/20 05:27:59;;;;;;;;;;;;;;;;;;5055143;28;1601;-71
2022/04/20 05:30:29;;;;;;;;;;;;;;;;;;5089434;28;1199;-71
2022/04/20 05:32:56;;;;;;;;;;;;;;;;;;5055480;28;1980;-70
2022/04/20 05:35:26;;;;;;;;;;;;;;;;;;5055543;28;1351;-71
2022/04/20 05:43:48;;;;;;;;;;;;;;;;;;5072947;28;1561;-71
2022/04/20 05:46:21;;;;;;;;;;;;;;;;;;5055148;28;1042;-70
2022/04/20 05:49:00;;;;;;;;;;;;;;;;;;5055212;28;1322;-71
2022/04/20 05:51:26;;;;;;;;;;;;;;;;;;5055129;28;1262;-71
2022/04/20 05:53:53;;;;;;;;;;;;;;;;;;5055061;28;1918;-71
2022/04/20 05:56:19;;;;;;;;;;;;;;;;;;5055015;28;1324;-71
2022/04/20 05:58:47;;;;;;;;;;;;;;;;;;5055210;28;1415;-71
2022/04/20 06:01:16;;;;;;;;;;;;;;;;;;5055183;28;1518;-70
2022/04/20 06:04:09;;;;;;;;;;;;;;;;;;5055097;28;1469;-71
2022/04/20 06:06:46;;;;;;;;;;;;;;;;;;5054735;28;1204;-71
2022/04/20 06:09:16;;;;;;;;;;;;;;;;;;5055095;28;1664;-71
2022/04/20 06:12:01;;;;;;;;;;;;;;;;;;5054782;28;1914;-71
2022/04/20 06:14:47;;;;;;;;;;;;;;;;;;5054932;28;1125;-71
2022/04/20 06:17:17;;;;;;;;;;;;;;;;;;5072625;28;864;-71
2022/04/20 06:19:52;;;;;;;;;;;;;;;;;;5054580;28;1343;-71
2022/04/20 06:22:33;;;;;;;;;;;;;;;;;;5072676;28;889;-70
2022/04/20 06:25:19;;;;;;;;;;;;;;;;;;5054752;28;1462;-69
2022/04/20 06:28:04;;;;;;;;;;;;;;;;;;5072757;28;1435;-71
2022/04/20 06:30:49;;;;;;;;;;;;;;;;;;5072285;28;662;-71
2022/04/20 06:33:32;;;;;;;;;;;;;;;;;;5054434;28;1981;-71
2022/04/20 06:36:03;;;;;;;;;;;;;;;;;;5072390;28;810;-71
2022/04/20 06:38:50;;;;;;;;;;;;;;;;;;5054258;28;1327;-71
2022/04/20 06:41:25;;;;;;;;;;;;;;;;;;5053192;28;1815;-70
2022/04/20 06:44:11;;;;;;;;;;;;;;;;;;5071962;28;963;-71
2022/04/20 06:46:38;;;;;;;;;;;;;;;;;;5071908;28;767;-70
2022/04/20 06:49:19;;;;;;;;;;;;;;;;;;5054494;28;1323;-70
2022/04/20 07:00:21;;;;;;;;;;;;;;;;;;5053829;28;846;-71
2022/04/20 07:03:03;;;;;;;;;;;;;;;;;;5054020;28;1475;-71
2022/04/20 07:05:51;;;;;;;;;;;;;;;;;;5054082;28;1477;-71
2022/04/20 07:08:40;;;;;;;;;;;;;;;;;;5053885;28;1413;-71
2022/04/20 07:11:12;;;;;;;;;;;;;;;;;;5053474;28;1693;-71
2022/04/20 07:13:39;;;;;;;;;;;;;;;;;;5053506;28;1914;-70
2022/04/20 07:16:05;;;;;;;;;;;;;;;;;;5053649;28;1316;-71
2022/04/20 07:18:34;;;;;;;;;;;;;;;;;;5053536;28;1396;-71
2022/04/20 07:21:02;;;;;;;;;;;;;;;;;;5071437;28;653;-70
2022/04/20 07:23:42;;;;;;;;;;;;;;;;;;5053572;28;1328;-71
2022/04/20 07:26:27;;;;;;;;;;;;;;;;;;5071815;28;698;-70
2022/04/20 07:29:06;;;;;;;;;;;;;;;;;;5053353;28;1381;-71
2022/04/20 07:31:43;;;;;;;;;;;;;;;;;;5053263;28;1251;-71
2022/04/20 07:34:29;;;;;;;;;;;;;;;;;;5070712;28;1975;-71
2022/04/20 07:37:13;;;;;;;;;;;;;;;;;;5053016;28;1314;-71
2022/04/20 07:40:08;;;;;;;;;;;;;;;;;;5047346;28;1246;-72
2022/04/20 07:42:54;;;;;;;;;;;;;;;;;;5052451;28;1422;-71
2022/04/20 07:45:30;;;;;;;;;;;;;;;;;;5053269;28;909;-71
2022/04/20 07:48:15;;;;;;;;;;;;;;;;;;5070932;28;1410;-70
2022/04/20 07:50:53;;;;;;;;;;;;;;;;;;5052486;28;1530;-71
2022/04/20 07:53:28;;;;;;;;;;;;;;;;;;5071018;28;1969;-71
2022/04/20 07:56:16;;;;;;;;;;;;;;;;;;5071004;28;846;-72
2022/04/20 07:58:59;;;;;;;;;;;;;;;;;;5052809;28;1419;-71
2022/04/20 08:01:45;;;;;;;;;;;;;;;;;;5070146;28;1143;-71
2022/04/20 08:04:32;;;;;;;;;;;;;;;;;;5070869;28;1017;-71
2022/04/20 08:07:08;;;;;;;;;;;;;;;;;;5052845;28;1445;-71
2022/04/20 08:09:36;;;;;;;;;;;;;;;;;;5052961;28;1337;-70
2022/04/20 08:12:05;;;;;;;;;;;;;;;;;;5052818;28;1498;-71
2022/04/20 08:14:31;;;;;;;;;;;;;;;;;;5052769;28;1918;-71
2022/04/20 08:17:12;;;;;;;;;;;;;;;;;;5052607;28;1299;-72
2022/04/20 08:19:44;;;;;;;;;;;;;;;;;;5070619;28;1377;-72
2022/04/20 08:22:15;;;;;;;;;;;;;;;;;;5052595;28;1574;-71
2022/04/20 08:24:43;;;;;;;;;;;;;;;;;;5070861;28;848;-71
2022/04/20 08:27:10;;;;;;;;;;;;;;;;;;5070568;28;889;-71
2022/04/20 08:29:36;;;;;;;;;;;;;;;;;;5052631;28;1475;-71
2022/04/20 08:32:03;;;;;;;;;;;;;;;;;;5070488;28;953;-71
2022/04/20 08:34:29;;;;;;;;;;;;;;;;;;5070729;28;1906;-70
2022/04/20 08:36:55;;;;;;;;;;;;;;;;;;5070291;28;1122;-70
2022/04/20 08:39:21;;;;;;;;;;;;;;;;;;5070569;28;1292;-71
2022/04/20 08:41:48;;;;;;;;;;;;;;;;;;5070307;28;1075;-71
2022/04/20 08:44:16;;;;;;;;;;;;;;;;;;5070868;28;830;-70
2022/04/20 08:46:42;;;;;;;;;;;;;;;;;;5070236;28;1063;-71
2022/04/20 08:49:08;;;;;;;;;;;;;;;;;;5070776;28;1411;-72
2022/04/20 08:54:15;;;;;;;;;;;;;;;;;;5070502;28;1919;-71
2022/04/20 08:59:25;;;;;;;;;;;;;;;;;;5063200;28;1968;-70
2022/04/20 09:01:52;;;;;;;;;;;;;;;;;;5074048;28;1119;-71
2022/04/20 09:04:18;;;;;;;;;;;;;;;;;;5074580;28;981;-70
2022/04/20 09:06:44;;;;;;;;;;;;;;;;;;5055899;28;864;-70
2022/04/20 09:09:11;;;;;;;;;;;;;;;;;;5074007;28;1316;-71
2022/04/20 09:11:37;;;;;;;;;;;;;;;;;;5073766;28;945;-71
2022/04/20 09:14:13;;;;;;;;;;;;;;;;;;5073857;28;1975;-71
2022/04/20 09:16:41;;;;;;;;;;;;;;;;;;5073562;28;1083;-71
2022/04/20 09:19:07;;;;;;;;;;;;;;;;;;5073827;28;1317;-71
2022/04/20 09:21:34;;;;;;;;;;;;;;;;;;5073614;28;734;-71
2022/04/20 09:24:07;;;;;;;;;;;;;;;;;;5073778;28;846;-71
2022/04/20 09:26:33;;;;;;;;;;;;;;;;;;5073174;28;1068;-71
2022/04/20 09:29:05;;;;;;;;;;;;;;;;;;5073534;28;1301;-71
2022/04/20 09:31:42;;;;;;;;;;;;;;;;;;5073746;28;1130;-71
2022/04/20 09:34:08;;;;;;;;;;;;;;;;;;5073609;28;1922;-72
2022/04/20 09:36:41;;;;;;;;;;;;;;;;;;5073447;28;949;-69
2022/04/20 09:39:09;;;;;;;;;;;;;;;;;;5056023;28;1404;-70
2022/04/20 09:41:37;;;;;;;;;;;;;;;;;;5055381;28;830;-71
2022/04/20 09:44:10;;;;;;;;;;;;;;;;;;5073634;28;783;-71
2022/04/20 09:49:35;;;;;;;;;;;;;;;;;;5070042;28;1370;-72
2022/04/20 09:52:08;;;;;;;;;;;;;;;;;;5073188;28;1255;-71
2022/04/20 09:54:36;;;;;;;;;;;;;;;;;;5054791;28;1906;-71
2022/04/20 09:57:09;;;;;;;;;;;;;;;;;;5073043;28;930;-71
2022/04/20 09:59:35;;;;;;;;;;;;;;;;;;5072945;28;1291;-71
2022/04/20 10:02:15;;;;;;;;;;;;;;;;;;5073097;28;826;-72
2022/04/20 10:04:44;;;;;;;;;;;;;;;;;;5072604;28;1233;-71
2022/04/20 10:07:11;;;;;;;;;;;;;;;;;;5071429;28;873;-71
2022/04/20 10:09:37;;;;;;;;;;;;;;;;;;5072754;28;1399;-71
2022/04/20 10:12:03;;;;;;;;;;;;;;;;;;5072918;28;984;-71
2022/04/20 10:17:15;;;;;;;;;;;;;;;;;;5073202;28;611;-71
2022/04/20 10:19:41;;;;;;;;;;;;;;;;;;5072539;28;1328;-71
2022/04/20 10:22:08;;;;;;;;;;;;;;;;;;5072851;28;1083;-70
2022/04/20 10:24:35;;;;;;;;;;;;;;;;;;5072768;28;861;-71
2022/04/20 10:27:03;;;;;;;;;;;;;;;;;;5071869;28;1584;-71
2022/04/20 10:29:31;;;;;;;;;;;;;;;;;;5072477;28;1304;-71
2022/04/20 10:31:59;;;;;;;;;;;;;;;;;;5072369;28;937;-71
2022/04/20 10:34:27;;;;;;;;;;;;;;;;;;5054382;28;1914;-71
2022/04/20 10:37:28;;;;;;;;;;;;;;;;;;5038019;28;1386;-70
2022/04/20 10:40:13;;;;;;;;;;;;;;;;;;5054398;28;1620;-71
2022/04/20 10:42:40;;;;;;;;;;;;;;;;;;5054160;28;1206;-71
2022/04/20 10:45:06;;;;;;;;;;;;;;;;;;5072608;28;960;-71
2022/04/20 10:47:34;;;;;;;;;;;;;;;;;;5071991;28;1284;-71
2022/04/20 10:50:12;;;;;;;;;;;;;;;;;;5072333;28;1122;-71
2022/04/20 10:52:39;;;;;;;;;;;;;;;;;;5072041;28;1135;-71
2022/04/20 10:55:06;;;;;;;;;;;;;;;;;;5054240;28;1993;-71
2022/04/20 10:57:35;;;;;;;;;;;;;;;;;;5071437;28;1306;-70
2022/04/20 11:00:25;;;;;;;;;;;;;;;;;;5071929;28;909;-69
2022/04/20 11:02:52;;;;;;;;;;;;;;;;;;5072099;28;806;-70
2022/04/20 11:05:21;;;;;;;;;;;;;;;;;;5071906;28;1138;-71
2022/04/20 11:08:04;;;;;;;;;;;;;;;;;;5071521;28;1395;-70
2022/04/20 11:10:30;;;;;;;;;;;;;;;;;;5071972;28;874;-71
2022/04/20 11:19:06;;;;;;;;;;;;;;;;;;5053608;28;1351;-71
2022/04/20 11:21:54;;;;;;;;;;;;;;;;;;5057169;28;1039;-71
2022/04/20 11:24:27;;;;;;;;;;;;;;;;;;5071514;28;719;-70
2022/04/20 11:26:54;;;;;;;;;;;;;;;;;;5071021;28;1067;-71
2022/04/20 11:29:22;;;;;;;;;;;;;;;;;;5071524;28;1408;-71
2022/04/20 11:31:48;;;;;;;;;;;;;;;;;;5071260;28;1083;-71
2022/04/20 11:34:16;;;;;;;;;;;;;;;;;;5071491;28;1910;-71
2022/04/20 11:36:43;;;;;;;;;;;;;;;;;;5071050;28;901;-72
2022/04/20 11:39:11;;;;;;;;;;;;;;;;;;5071256;28;1292;-70
2022/04/20 11:41:37;;;;;;;;;;;;;;;;;;5060781;28;1233;-71
2022/04/20 11:44:04;;;;;;;;;;;;;;;;;;5051441;28;728;-71
2022/04/20 11:46:34;;;;;;;;;;;;;;;;;;5033432;28;1562;-70
2022/04/20 11:49:00;;;;;;;;;;;;;;;;;;5051580;28;1331;-70
2022/04/20 11:51:36;;;;;;;;;;;;;;;;;;5049988;28;1374;-71
2022/04/20 11:54:03;;;;;;;;;;;;;;;;;;5051034;28;1961;-71
2022/04/20 11:56:42;;;;;;;;;;;;;;;;;;5032883;28;1585;-71
2022/04/20 11:59:08;;;;;;;;;;;;;;;;;;5050880;28;1425;-71
2022/04/20 12:01:36;;;;;;;;;;;;;;;;;;5050991;28;1059;-71
2022/04/20 12:04:04;;;;;;;;;;;;;;;;;;5056000;28;1495;-70
2022/04/20 12:06:30;;;;;;;;;;;;;;;;;;5069878;28;1330;-71
2022/04/20 12:08:57;;;;;;;;;;;;;;;;;;5053031;28;1394;-71
2022/04/20 12:11:23;;;;;;;;;;;;;;;;;;5070981;28;1067;-71
2022/04/20 12:13:56;;;;;;;;;;;;;;;;;;5070742;28;1973;-71
2022/04/20 12:16:24;;;;;;;;;;;;;;;;;;5070608;28;1047;-72
2022/04/20 12:18:50;;;;;;;;;;;;;;;;;;5070854;28;1358;-70
2022/04/20 12:21:35;;;;;;;;;;;;;;;;;;5070964;28;865;-70
2022/04/20 12:24:01;;;;;;;;;;;;;;;;;;5070931;28;1135;-71
2022/04/20 12:26:28;;;;;;;;;;;;;;;;;;5070601;28;862;-71
2022/04/20 12:28:59;;;;;;;;;;;;;;;;;;5071597;28;1355;-71
2022/04/20 12:31:26;;;;;;;;;;;;;;;;;;5075113;28;1116;-71
2022/04/20 12:33:59;;;;;;;;;;;;;;;;;;5074844;28;1952;-71
2022/04/20 12:36:25;;;;;;;;;;;;;;;;;;5074691;28;1040;-71
2022/04/20 12:38:57;;;;;;;;;;;;;;;;;;5057046;28;1381;-71
2022/04/20 12:41:43;;;;;;;;;;;;;;;;;;5074022;28;1497;-70
2022/04/20 12:44:31;;;;;;;;;;;;;;;;;;5074479;28;1117;-71
2022/04/20 12:46:59;;;;;;;;;;;;;;;;;;5068995;28;1253;-71
2022/04/20 12:49:25;;;;;;;;;;;;;;;;;;5074268;28;1377;-70
2022/04/20 12:51:52;;;;;;;;;;;;;;;;;;5074135;28;826;-70
2022/04/20 12:54:22;;;;;;;;;;;;;;;;;;5074304;28;1913;-70
2022/04/20 13:02:17;;;;;;;;;;;;;;;;;;5074133;28;953;-70
2022/04/20 13:04:46;;;;;;;;;;;;;;;;;;5073976;28;1278;-71
2022/04/20 13:07:13;;;;;;;;;;;;;;;;;;5073942;28;1076;-70
2022/04/20 13:09:39;;;;;;;;;;;;;;;;;;5073954;28;1292;-70
2022/04/20 13:12:05;;;;;;;;;;;;;;;;;;5073932;28;1059;-71
2022/04/20 13:14:32;;;;;;;;;;;;;;;;;;5055961;28;1910;-70
2022/04/20 13:16:58;;;;;;;;;;;;;;;;;;5073740;28;929;-70
2022/04/20 13:19:25;;;;;;;;;;;;;;;;;;5073875;28;1312;-70
2022/04/20 13:21:52;;;;;;;;;;;;;;;;;;5073608;28;1013;-71
2022/04/20 13:27:54;;;;;;;;;;;;;;;;;;5073764;28;1048;-71
2022/04/20 13:29:48;;;;;;;;;;;;;;;;;;5073158;28;1384;-71
2022/04/20 13:32:15;;;;;;;;;;;;;;;;;;5073866;28;873;-70
2022/04/20 13:34:43;;;;;;;;;;;;;;;;;;5073289;28;1910;-71
2022/04/20 13:37:09;;;;;;;;;;;;;;;;;;5073363;28;1049;-71
2022/04/20 13:39:35;;;;;;;;;;;;;;;;;;5073355;28;1320;-71
2022/04/20 13:42:01;;;;;;;;;;;;;;;;;;5057863;28;1141;-71
2022/04/20 13:44:27;;;;;;;;;;;;;;;;;;5053492;28;822;-70
2022/04/20 13:46:53;;;;;;;;;;;;;;;;;;5053035;28;1150;-71
2022/04/20 13:49:20;;;;;;;;;;;;;;;;;;5053099;28;1302;-71
2022/04/20 13:51:48;;;;;;;;;;;;;;;;;;5053173;28;1032;-71
2022/04/20 13:54:14;;;;;;;;;;;;;;;;;;5053123;28;1969;-71
2022/04/20 13:56:42;;;;;;;;;;;;;;;;;;5052886;28;1106;-71
2022/04/20 13:59:08;;;;;;;;;;;;;;;;;;5053039;28;1380;-70
2022/04/20 14:01:35;;;;;;;;;;;;;;;;;;5053050;28;1079;-71
2022/04/20 14:04:01;;;;;;;;;;;;;;;;;;5053123;28;862;-69
2022/04/20 14:06:27;;;;;;;;;;;;;;;;;;5052679;28;1055;-71
2022/04/20 14:08:55;;;;;;;;;;;;;;;;;;5052792;28;1255;-71
2022/04/20 14:11:21;;;;;;;;;;;;;;;;;;5052898;28;965;-71
2022/04/20 14:13:47;;;;;;;;;;;;;;;;;;5053518;28;1591;-71
2022/04/20 14:16:13;;;;;;;;;;;;;;;;;;5071453;28;1890;-70
2022/04/20 14:18:39;;;;;;;;;;;;;;;;;;5072836;28;1327;-71
2022/04/20 14:21:06;;;;;;;;;;;;;;;;;;5072474;28;972;-71
2022/04/20 14:23:32;;;;;;;;;;;;;;;;;;5072913;28;791;-71
2022/04/20 14:34:23;;;;;;;;;;;;;;;;;;5050023;28;1910;-71
2022/04/20 14:36:49;;;;;;;;;;;;;;;;;;5066207;28;1091;-71
2022/04/20 14:39:15;;;;;;;;;;;;;;;;;;5072273;28;1333;-71
2022/04/20 14:41:43;;;;;;;;;;;;;;;;;;5071910;28;1225;-71
2022/04/20 14:44:09;;;;;;;;;;;;;;;;;;5072236;28;1071;-71
2022/04/20 14:46:36;;;;;;;;;;;;;;;;;;5072285;28;936;-71
2022/04/20 14:49:02;;;;;;;;;;;;;;;;;;5072191;28;1381;-72
2022/04/20 14:51:28;;;;;;;;;;;;;;;;;;5071723;28;893;-71
2022/04/20 14:53:55;;;;;;;;;;;;;;;;;;5072141;28;1135;-71
2022/04/20 14:56:21;;;;;;;;;;;;;;;;;;5071625;28;1921;-71
2022/04/20 14:58:49;;;;;;;;;;;;;;;;;;5071960;28;1316;-71
2022/04/20 15:01:15;;;;;;;;;;;;;;;;;;5054085;28;905;-71
2022/04/20 15:03:41;;;;;;;;;;;;;;;;;;5071828;28;1076;-70
2022/04/20 15:06:08;;;;;;;;;;;;;;;;;;5071660;28;965;-70
2022/04/20 15:08:34;;;;;;;;;;;;;;;;;;5071270;28;1316;-71
2022/04/20 15:11:01;;;;;;;;;;;;;;;;;;5071602;28;1139;-71
2022/04/20 15:13:27;;;;;;;;;;;;;;;;;;5071692;28;949;-71
2022/04/20 15:15:54;;;;;;;;;;;;;;;;;;5071619;28;1937;-71
2022/04/20 15:18:21;;;;;;;;;;;;;;;;;;5071379;28;1393;-71
2022/04/20 15:20:47;;;;;;;;;;;;;;;;;;5071418;28;910;-71
2022/04/20 15:23:14;;;;;;;;;;;;;;;;;;5071679;28;806;-71
2022/04/20 15:25:40;;;;;;;;;;;;;;;;;;5071422;28;1075;-72
2022/04/20 15:28:07;;;;;;;;;;;;;;;;;;5070986;28;1341;-71
2022/04/20 15:30:33;;;;;;;;;;;;;;;;;;5053190;28;1314;-70
2022/04/20 15:33:01;;;;;;;;;;;;;;;;;;5071322;28;1117;-71
2022/04/20 15:35:27;;;;;;;;;;;;;;;;;;5071161;28;1918;-71
2022/04/20 15:37:53;;;;;;;;;;;;;;;;;;5070626;28;1305;-71
2022/04/20 15:40:20;;;;;;;;;;;;;;;;;;5071386;28;1182;-70
2022/04/20 15:42:47;;;;;;;;;;;;;;;;;;5071089;28;1034;-71
2022/04/20 15:45:13;;;;;;;;;;;;;;;;;;5071364;28;932;-71
2022/04/20 15:47:39;;;;;;;;;;;;;;;;;;5048326;28;2120;-71
2022/04/20 15:50:07;;;;;;;;;;;;;;;;;;5070788;28;1182;-70
2022/04/20 15:52:34;;;;;;;;;;;;;;;;;;5070945;28;1165;-71
2022/04/20 16:00:28;;;;;;;;;;;;;;;;;;5071220;28;876;-70
2022/04/20 16:02:55;;;;;;;;;;;;;;;;;;5086436;22;3732;-70
2022/04/20 16:05:23;;;;;;;;;;;;;;;;;;5067484;28;2228;-71
2022/04/20 16:07:49;;;;;;;;;;;;;;;;;;5067704;28;1034;-70
2022/04/20 16:10:15;;;;;;;;;;;;;;;;;;5071073;28;940;-68
2022/04/20 16:12:43;;;;;;;;;;;;;;;;;;5070438;28;1391;-70
2022/04/20 16:15:11;;;;;;;;;;;;;;;;;;5070741;28;1913;-71
2022/04/20 16:17:38;;;;;;;;;;;;;;;;;;5070591;28;1072;-70
2022/04/20 16:20:04;;;;;;;;;;;;;;;;;;5070787;28;1072;-71
2022/04/20 16:22:32;;;;;;;;;;;;;;;;;;5070763;28;791;-71
2022/04/20 16:24:58;;;;;;;;;;;;;;;;;;5070497;28;1479;-68
2022/04/20 16:27:26;;;;;;;;;;;;;;;;;;5070407;28;1082;-70
2022/04/20 16:29:52;;;;;;;;;;;;;;;;;;5070773;28;1122;-70
2022/04/20 16:32:19;;;;;;;;;;;;;;;;;;5070795;28;618;-70
2022/04/20 16:34:45;;;;;;;;;;;;;;;;;;5070654;28;2053;-69
2022/04/20 16:37:12;;;;;;;;;;;;;;;;;;5066745;28;2381;-70
2022/04/20 16:39:39;;;;;;;;;;;;;;;;;;5066212;28;2112;-71
2022/04/20 16:42:06;;;;;;;;;;;;;;;;;;5068281;28;1759;-71
2022/04/20 16:44:33;;;;;;;;;;;;;;;;;;5066611;28;1737;-70
2022/04/20 16:46:59;;;;;;;;;;;;;;;;;;5066950;28;1785;-71
2022/04/20 16:49:26;;;;;;;;;;;;;;;;;;5065146;28;2132;-70
2022/04/20 16:51:52;;;;;;;;;;;;;;;;;;5066405;28;1736;-70
2022/04/20 16:54:19;;;;;;;;;;;;;;;;;;5069043;28;1851;-71
2022/04/20 16:56:46;;;;;;;;;;;;;;;;;;5066519;28;1910;-70
2022/04/20 16:59:13;;;;;;;;;;;;;;;;;;5070511;28;1249;-70
2022/04/20 17:01:41;;;;;;;;;;;;;;;;;;5067974;28;2086;-70
2022/04/20 17:04:08;;;;;;;;;;;;;;;;;;5070141;28;1303;-71
2022/04/20 17:06:34;;;;;;;;;;;;;;;;;;5068397;28;1731;-70
2022/04/20 17:09:00;;;;;;;;;;;;;;;;;;5068129;28;1862;-71
2022/04/20 17:11:30;;;;;;;;;;;;;;;;;;5064191;28;1376;-71
2022/04/20 17:13:58;;;;;;;;;;;;;;;;;;5048568;28;1269;-70
2022/04/20 17:16:25;;;;;;;;;;;;;;;;;;5051103;28;1922;-72
2022/04/20 17:18:51;;;;;;;;;;;;;;;;;;5059436;28;2010;-71
2022/04/20 17:26:45;;;;;;;;;;;;;;;;;;5069687;28;1719;-71
2022/04/20 17:29:13;;;;;;;;;;;;;;;;;;5071581;28;1348;-69
2022/04/20 17:31:40;;;;;;;;;;;;;;;;;;5068423;28;1782;-71
2022/04/20 17:34:06;;;;;;;;;;;;;;;;;;5075358;28;1379;-71
2022/04/20 17:36:39;;;;;;;;;;;;;;;;;;5079691;28;1965;-71
2022/04/20 17:39:06;;;;;;;;;;;;;;;;;;5076873;28;814;-70
2022/04/20 17:41:33;;;;;;;;;;;;;;;;;;5070161;28;1765;-70
2022/04/20 17:43:59;;;;;;;;;;;;;;;;;;5068279;28;2014;-72
2022/04/20 17:46:26;;;;;;;;;;;;;;;;;;5069083;28;1542;-70
2022/04/20 17:48:52;;;;;;;;;;;;;;;;;;5070823;28;2002;-70
2022/04/20 17:51:19;;;;;;;;;;;;;;;;;;5071266;28;1414;-70
2022/04/20 17:53:45;;;;;;;;;;;;;;;;;;5070714;28;1537;-69
2022/04/20 17:56:13;;;;;;;;;;;;;;;;;;5070916;28;2000;-69
2022/04/20 17:58:39;;;;;;;;;;;;;;;;;;5069508;28;1703;-70
2022/04/20 18:01:05;;;;;;;;;;;;;;;;;;5068939;28;1791;-69
2022/04/20 18:03:33;;;;;;;;;;;;;;;;;;5070944;28;1347;-70
2022/04/20 18:05:59;;;;;;;;;;;;;;;;;;5070710;28;1438;-70
2022/04/20 18:08:25;;;;;;;;;;;;;;;;;;5070362;28;1562;-69
2022/04/20 18:10:52;;;;;;;;;;;;;;;;;;5071050;28;825;-69
2022/04/20 18:13:18;;;;;;;;;;;;;;;;;;5069539;28;1747;-70
2022/04/20 18:15:44;;;;;;;;;;;;;;;;;;5070497;28;1980;-70
2022/04/20 18:18:10;;;;;;;;;;;;;;;;;;5067550;28;2041;-70
2022/04/20 18:20:38;;;;;;;;;;;;;;;;;;5068318;28;1656;-70
2022/04/20 18:23:05;;;;;;;;;;;;;;;;;;5070096;28;1427;-70
2022/04/20 18:25:31;;;;;;;;;;;;;;;;;;5052266;28;1415;-69
2022/04/20 18:27:59;;;;;;;;;;;;;;;;;;5051430;28;1523;-69
2022/04/20 18:30:25;;;;;;;;;;;;;;;;;;5070467;28;1541;-70
2022/04/20 18:32:51;;;;;;;;;;;;;;;;;;5070141;28;1554;-71
2022/04/20 18:35:18;;;;;;;;;;;;;;;;;;5068765;28;1827;-70
2022/04/20 18:37:46;;;;;;;;;;;;;;;;;;5069077;28;1994;-71